sensor_id;sensor_type;location;lat;lon;timestamp;pressure;altitude;pressure_sealevel;temperature;humidity
70011;BME280;59543;37.950;-122.338;2023-04-27T00:00:58;101144.59;;;24.50;42.98
70011;BME280;59543;37.950;-122.338;2023-04-27T00:03:24;101144.13;;;24.16;41.77
70011;BME280;59543;37.950;-122.338;2023-04-27T00:05:50;101133.19;;;24.09;42.20
70011;BME280;59543;37.950;-122.338;2023-04-27T00:08:17;101130.69;;;24.08;42.63
70011;BME280;59543;37.950;-122.338;2023-04-27T00:10:43;101131.69;;;23.95;43.83
70011;BME280;59543;37.950;-122.338;2023-04-27T00:13:09;101126.13;;;23.77;43.56
70011;BME280;59543;37.950;-122.338;2023-04-27T00:15:35;101130.56;;;23.27;43.94
70011;BME280;59543;37.950;-122.338;2023-04-27T00:18:02;101131.16;;;23.11;44.50
70011;BME280;59543;37.950;-122.338;2023-04-27T00:20:28;101132.16;;;23.17;45.04
70011;BME280;59543;37.950;-122.338;2023-04-27T00:22:55;101130.81;;;22.94;45.69
70011;BME280;59543;37.950;-122.338;2023-04-27T00:25:21;101137.25;;;22.75;46.53
70011;BME280;59543;37.950;-122.338;2023-04-27T00:27:47;101140.25;;;22.67;47.83
70011;BME280;59543;37.950;-122.338;2023-04-27T00:30:13;101143.31;;;22.45;45.89
70011;BME280;59543;37.950;-122.338;2023-04-27T00:32:40;101135.59;;;22.22;46.67
70011;BME280;59543;37.950;-122.338;2023-04-27T00:35:07;101141.47;;;22.26;47.22
70011;BME280;59543;37.950;-122.338;2023-04-27T00:37:34;101135.41;;;22.17;47.82
70011;BME280;59543;37.950;-122.338;2023-04-27T00:40:00;101139.19;;;22.23;47.42
70011;BME280;59543;37.950;-122.338;2023-04-27T00:42:26;101144.88;;;22.08;48.10
70011;BME280;59543;37.950;-122.338;2023-04-27T00:44:52;101143.47;;;21.92;47.58
70011;BME280;59543;37.950;-122.338;2023-04-27T00:47:19;101148.34;;;21.70;48.22
70011;BME280;59543;37.950;-122.338;2023-04-27T00:49:45;101142.63;;;21.72;48.93
70011;BME280;59543;37.950;-122.338;2023-04-27T00:52:11;101141.38;;;21.81;48.24
70011;BME280;59543;37.950;-122.338;2023-04-27T00:54:38;101134.00;;;21.75;47.76
70011;BME280;59543;37.950;-122.338;2023-04-27T00:57:04;101132.13;;;21.68;49.03
70011;BME280;59543;37.950;-122.338;2023-04-27T00:59:31;101131.72;;;21.52;48.29
70011;BME280;59543;37.950;-122.338;2023-04-27T01:01:57;101130.03;;;21.31;48.93
70011;BME280;59543;37.950;-122.338;2023-04-27T01:04:24;101136.78;;;21.41;49.55
70011;BME280;59543;37.950;-122.338;2023-04-27T01:06:51;101127.50;;;21.36;49.31
70011;BME280;59543;37.950;-122.338;2023-04-27T01:09:18;101128.53;;;21.08;50.54
70011;BME280;59543;37.950;-122.338;2023-04-27T01:11:47;101128.09;;;21.05;50.40
70011;BME280;59543;37.950;-122.338;2023-04-27T01:14:13;101123.88;;;21.02;50.16
70011;BME280;59543;37.950;-122.338;2023-04-27T01:16:40;101128.88;;;20.78;50.15
70011;BME280;59543;37.950;-122.338;2023-04-27T01:19:06;101128.88;;;20.78;50.92
70011;BME280;59543;37.950;-122.338;2023-04-27T01:21:33;101120.25;;;20.62;50.93
70011;BME280;59543;37.950;-122.338;2023-04-27T01:24:00;101134.38;;;20.30;52.38
70011;BME280;59543;37.950;-122.338;2023-04-27T01:26:26;101119.00;;;20.64;52.77
70011;BME280;59543;37.950;-122.338;2023-04-27T01:28:52;101120.25;;;20.68;51.98
70011;BME280;59543;37.950;-122.338;2023-04-27T01:31:19;101130.00;;;20.36;51.90
70011;BME280;59543;37.950;-122.338;2023-04-27T01:33:45;101125.69;;;20.55;51.41
70011;BME280;59543;37.950;-122.338;2023-04-27T01:36:11;101126.22;;;20.37;52.10
70011;BME280;59543;37.950;-122.338;2023-04-27T01:38:37;101118.59;;;19.84;53.30
70011;BME280;59543;37.950;-122.338;2023-04-27T01:41:04;101129.94;;;19.81;53.47
70011;BME280;59543;37.950;-122.338;2023-04-27T01:43:31;101129.25;;;19.73;53.76
70011;BME280;59543;37.950;-122.338;2023-04-27T01:46:05;101127.41;;;19.30;54.45
70011;BME280;59543;37.950;-122.338;2023-04-27T01:48:32;101124.03;;;19.28;55.02
70011;BME280;59543;37.950;-122.338;2023-04-27T01:50:58;101124.06;;;19.07;54.77
70011;BME280;59543;37.950;-122.338;2023-04-27T01:53:24;101119.94;;;18.89;55.79
70011;BME280;59543;37.950;-122.338;2023-04-27T01:55:50;101124.13;;;18.92;56.41
70011;BME280;59543;37.950;-122.338;2023-04-27T01:58:17;101122.78;;;18.66;56.87
70011;BME280;59543;37.950;-122.338;2023-04-27T02:00:43;101119.41;;;18.64;55.83
70011;BME280;59543;37.950;-122.338;2023-04-27T02:03:09;101120.56;;;18.55;56.56
70011;BME280;59543;37.950;-122.338;2023-04-27T02:05:37;101129.19;;;18.22;57.14
70011;BME280;59543;37.950;-122.338;2023-04-27T02:08:03;101131.53;;;18.11;57.90
70011;BME280;59543;37.950;-122.338;2023-04-27T02:10:30;101132.63;;;17.72;58.80
70011;BME280;59543;37.950;-122.338;2023-04-27T02:12:56;101133.16;;;17.37;60.19
70011;BME280;59543;37.950;-122.338;2023-04-27T02:15:23;101130.63;;;17.51;59.98
70011;BME280;59543;37.950;-122.338;2023-04-27T02:17:49;101132.88;;;17.47;60.23
70011;BME280;59543;37.950;-122.338;2023-04-27T02:20:15;101136.34;;;17.41;60.77
70011;BME280;59543;37.950;-122.338;2023-04-27T02:22:42;101130.38;;;17.23;61.01
70011;BME280;59543;37.950;-122.338;2023-04-27T02:25:10;101136.25;;;17.11;60.65
70011;BME280;59543;37.950;-122.338;2023-04-27T02:27:37;101146.13;;;17.12;60.96
70011;BME280;59543;37.950;-122.338;2023-04-27T02:30:07;101145.63;;;16.86;62.45
70011;BME280;59543;37.950;-122.338;2023-04-27T02:32:34;101151.78;;;16.80;63.12
70011;BME280;59543;37.950;-122.338;2023-04-27T02:35:01;101144.56;;;16.64;63.30
70011;BME280;59543;37.950;-122.338;2023-04-27T02:37:27;101149.44;;;16.68;63.59
70011;BME280;59543;37.950;-122.338;2023-04-27T02:39:54;101153.84;;;16.69;63.96
70011;BME280;59543;37.950;-122.338;2023-04-27T02:42:21;101146.75;;;16.60;64.29
70011;BME280;59543;37.950;-122.338;2023-04-27T02:44:47;101158.81;;;16.27;65.58
70011;BME280;59543;37.950;-122.338;2023-04-27T02:47:13;101161.53;;;16.27;65.33
70011;BME280;59543;37.950;-122.338;2023-04-27T02:49:40;101157.84;;;16.11;66.06
70011;BME280;59543;37.950;-122.338;2023-04-27T02:52:06;101163.97;;;16.05;66.00
70011;BME280;59543;37.950;-122.338;2023-04-27T02:54:32;101154.84;;;15.98;65.95
70011;BME280;59543;37.950;-122.338;2023-04-27T02:56:59;101155.91;;;15.89;66.22
70011;BME280;59543;37.950;-122.338;2023-04-27T02:59:25;101158.81;;;15.71;66.53
70011;BME280;59543;37.950;-122.338;2023-04-27T03:01:51;101159.81;;;15.86;66.45
70011;BME280;59543;37.950;-122.338;2023-04-27T03:04:18;101162.84;;;15.67;67.08
70011;BME280;59543;37.950;-122.338;2023-04-27T03:06:44;101167.81;;;15.47;67.89
70011;BME280;59543;37.950;-122.338;2023-04-27T03:09:11;101161.69;;;15.53;67.85
70011;BME280;59543;37.950;-122.338;2023-04-27T03:11:38;101167.13;;;15.12;69.46
70011;BME280;59543;37.950;-122.338;2023-04-27T03:14:04;101164.22;;;14.97;70.30
70011;BME280;59543;37.950;-122.338;2023-04-27T03:16:31;101178.78;;;14.96;70.67
70011;BME280;59543;37.950;-122.338;2023-04-27T03:18:58;101185.22;;;15.03;70.18
70011;BME280;59543;37.950;-122.338;2023-04-27T03:21:24;101179.63;;;14.89;71.05
70011;BME280;59543;37.950;-122.338;2023-04-27T03:23:51;101178.59;;;14.81;71.28
70011;BME280;59543;37.950;-122.338;2023-04-27T03:26:18;101178.09;;;14.94;70.54
70011;BME280;59543;37.950;-122.338;2023-04-27T03:28:45;101184.38;;;14.86;70.94
70011;BME280;59543;37.950;-122.338;2023-04-27T03:31:12;101191.50;;;15.04;70.18
70011;BME280;59543;37.950;-122.338;2023-04-27T03:33:40;101196.19;;;14.77;71.69
70011;BME280;59543;37.950;-122.338;2023-04-27T03:36:07;101194.50;;;14.84;70.97
70011;BME280;59543;37.950;-122.338;2023-04-27T03:38:35;101196.03;;;14.79;71.21
70011;BME280;59543;37.950;-122.338;2023-04-27T03:41:01;101196.81;;;14.63;71.90
70011;BME280;59543;37.950;-122.338;2023-04-27T03:43:27;101194.94;;;14.55;72.17
70011;BME280;59543;37.950;-122.338;2023-04-27T03:45:53;101204.75;;;14.56;72.31
70011;BME280;59543;37.950;-122.338;2023-04-27T03:48:20;101195.94;;;14.54;72.62
70011;BME280;59543;37.950;-122.338;2023-04-27T03:50:47;101192.91;;;14.57;72.50
70011;BME280;59543;37.950;-122.338;2023-04-27T03:53:14;101193.41;;;14.53;72.63
70011;BME280;59543;37.950;-122.338;2023-04-27T03:55:42;101199.97;;;14.50;72.53
70011;BME280;59543;37.950;-122.338;2023-04-27T03:58:09;101198.97;;;14.51;72.59
70011;BME280;59543;37.950;-122.338;2023-04-27T04:00:36;101207.03;;;14.43;72.75
70011;BME280;59543;37.950;-122.338;2023-04-27T04:03:03;101200.44;;;14.46;72.97
70011;BME280;59543;37.950;-122.338;2023-04-27T04:05:30;101202.03;;;14.22;73.89
70011;BME280;59543;37.950;-122.338;2023-04-27T04:07:56;101201.31;;;14.12;74.76
70011;BME280;59543;37.950;-122.338;2023-04-27T04:10:23;101208.97;;;14.25;74.37
70011;BME280;59543;37.950;-122.338;2023-04-27T04:12:50;101204.59;;;14.24;74.28
70011;BME280;59543;37.950;-122.338;2023-04-27T04:15:16;101206.97;;;14.27;74.09
70011;BME280;59543;37.950;-122.338;2023-04-27T04:17:43;101211.00;;;14.23;73.91
70011;BME280;59543;37.950;-122.338;2023-04-27T04:20:10;101204.53;;;14.15;74.63
70011;BME280;59543;37.950;-122.338;2023-04-27T04:22:37;101209.16;;;14.23;74.34
70011;BME280;59543;37.950;-122.338;2023-04-27T04:25:04;101210.41;;;14.03;75.74
70011;BME280;59543;37.950;-122.338;2023-04-27T04:27:30;101214.47;;;14.07;75.64
70011;BME280;59543;37.950;-122.338;2023-04-27T04:29:57;101212.59;;;14.07;75.44
70011;BME280;59543;37.950;-122.338;2023-04-27T04:32:26;101210.06;;;13.80;77.17
70011;BME280;59543;37.950;-122.338;2023-04-27T04:34:56;101208.06;;;13.82;77.55
70011;BME280;59543;37.950;-122.338;2023-04-27T04:37:23;101211.28;;;13.85;77.73
70011;BME280;59543;37.950;-122.338;2023-04-27T04:39:50;101212.94;;;13.78;78.53
70011;BME280;59543;37.950;-122.338;2023-04-27T04:42:16;101203.09;;;13.69;79.05
70011;BME280;59543;37.950;-122.338;2023-04-27T04:44:43;101200.69;;;13.66;79.75
70011;BME280;59543;37.950;-122.338;2023-04-27T04:47:09;101203.75;;;13.71;79.85
70011;BME280;59543;37.950;-122.338;2023-04-27T04:49:36;101202.00;;;13.62;80.68
70011;BME280;59543;37.950;-122.338;2023-04-27T04:52:02;101206.78;;;13.68;79.72
70011;BME280;59543;37.950;-122.338;2023-04-27T04:54:29;101208.50;;;13.69;79.82
70011;BME280;59543;37.950;-122.338;2023-04-27T04:56:56;101200.94;;;13.55;80.40
70011;BME280;59543;37.950;-122.338;2023-04-27T04:59:26;101207.66;;;13.50;80.06
70011;BME280;59543;37.950;-122.338;2023-04-27T05:01:53;101210.66;;;13.47;80.93
70011;BME280;59543;37.950;-122.338;2023-04-27T05:04:20;101207.34;;;13.54;80.45
70011;BME280;59543;37.950;-122.338;2023-04-27T05:06:47;101215.13;;;13.57;80.42
70011;BME280;59543;37.950;-122.338;2023-04-27T05:09:14;101211.38;;;13.49;81.03
70011;BME280;59543;37.950;-122.338;2023-04-27T05:11:40;101214.16;;;13.40;81.05
70011;BME280;59543;37.950;-122.338;2023-04-27T05:14:06;101218.41;;;13.42;80.90
70011;BME280;59543;37.950;-122.338;2023-04-27T05:16:33;101213.88;;;13.25;81.85
70011;BME280;59543;37.950;-122.338;2023-04-27T05:18:59;101213.91;;;13.15;82.39
70011;BME280;59543;37.950;-122.338;2023-04-27T05:21:25;101212.16;;;13.06;82.67
70011;BME280;59543;37.950;-122.338;2023-04-27T05:23:51;101220.59;;;13.11;81.84
70011;BME280;59543;37.950;-122.338;2023-04-27T05:26:18;101214.28;;;13.02;81.82
70011;BME280;59543;37.950;-122.338;2023-04-27T05:28:44;101217.25;;;13.09;81.88
70011;BME280;59543;37.950;-122.338;2023-04-27T05:31:11;101221.47;;;13.12;81.17
70011;BME280;59543;37.950;-122.338;2023-04-27T05:33:38;101221.47;;;12.94;82.26
70011;BME280;59543;37.950;-122.338;2023-04-27T05:36:04;101223.25;;;13.03;82.53
70011;BME280;59543;37.950;-122.338;2023-04-27T05:38:31;101220.69;;;13.01;82.66
70011;BME280;59543;37.950;-122.338;2023-04-27T05:40:58;101224.72;;;12.97;82.29
70011;BME280;59543;37.950;-122.338;2023-04-27T05:43:24;101224.91;;;12.86;82.67
70011;BME280;59543;37.950;-122.338;2023-04-27T05:45:51;101220.44;;;12.77;83.36
70011;BME280;59543;37.950;-122.338;2023-04-27T05:48:18;101215.88;;;12.77;83.13
70011;BME280;59543;37.950;-122.338;2023-04-27T05:50:44;101225.56;;;12.52;84.49
70011;BME280;59543;37.950;-122.338;2023-04-27T05:53:11;101222.59;;;12.46;84.97
70011;BME280;59543;37.950;-122.338;2023-04-27T05:55:37;101222.59;;;12.46;85.20
70011;BME280;59543;37.950;-122.338;2023-04-27T05:58:04;101219.94;;;12.36;85.30
70011;BME280;59543;37.950;-122.338;2023-04-27T06:00:30;101220.34;;;12.41;84.64
70011;BME280;59543;37.950;-122.338;2023-04-27T06:02:57;101218.25;;;12.35;84.99
70011;BME280;59543;37.950;-122.338;2023-04-27T06:05:23;101221.66;;;12.27;85.18
70011;BME280;59543;37.950;-122.338;2023-04-27T06:07:49;101216.06;;;12.11;86.35
70011;BME280;59543;37.950;-122.338;2023-04-27T06:10:15;101211.56;;;12.02;86.71
70011;BME280;59543;37.950;-122.338;2023-04-27T06:12:41;101221.03;;;12.16;86.64
70011;BME280;59543;37.950;-122.338;2023-04-27T06:15:08;101216.72;;;12.23;85.66
70011;BME280;59543;37.950;-122.338;2023-04-27T06:17:35;101214.41;;;11.90;86.86
70011;BME280;59543;37.950;-122.338;2023-04-27T06:20:05;101218.41;;;11.86;87.02
70011;BME280;59543;37.950;-122.338;2023-04-27T06:22:32;101213.03;;;11.86;87.24
70011;BME280;59543;37.950;-122.338;2023-04-27T06:24:59;101203.81;;;11.60;88.30
70011;BME280;59543;37.950;-122.338;2023-04-27T06:27:25;101215.00;;;11.75;87.80
70011;BME280;59543;37.950;-122.338;2023-04-27T06:29:51;101212.44;;;11.73;87.47
70011;BME280;59543;37.950;-122.338;2023-04-27T06:32:17;101211.59;;;11.73;87.63
70011;BME280;59543;37.950;-122.338;2023-04-27T06:34:44;101210.78;;;11.62;87.72
70011;BME280;59543;37.950;-122.338;2023-04-27T06:37:10;101214.19;;;11.35;89.46
70011;BME280;59543;37.950;-122.338;2023-04-27T06:39:36;101219.00;;;11.12;91.11
70011;BME280;59543;37.950;-122.338;2023-04-27T06:42:02;101212.78;;;11.21;91.05
70011;BME280;59543;37.950;-122.338;2023-04-27T06:44:29;101213.91;;;11.09;91.15
70011;BME280;59543;37.950;-122.338;2023-04-27T06:46:56;101216.03;;;10.96;91.43
70011;BME280;59543;37.950;-122.338;2023-04-27T06:49:22;101219.41;;;10.98;91.48
70011;BME280;59543;37.950;-122.338;2023-04-27T06:51:48;101219.69;;;10.85;91.69
70011;BME280;59543;37.950;-122.338;2023-04-27T06:54:14;101227.38;;;10.99;90.67
70011;BME280;59543;37.950;-122.338;2023-04-27T06:56:41;101234.16;;;10.94;90.40
70011;BME280;59543;37.950;-122.338;2023-04-27T06:59:07;101230.03;;;10.80;90.66
70011;BME280;59543;37.950;-122.338;2023-04-27T07:01:34;101232.03;;;10.88;89.81
70011;BME280;59543;37.950;-122.338;2023-04-27T07:04:00;101232.31;;;10.85;90.05
70011;BME280;59543;37.950;-122.338;2023-04-27T07:06:26;101233.31;;;10.84;89.76
70011;BME280;59543;37.950;-122.338;2023-04-27T07:08:53;101239.50;;;10.74;89.87
70011;BME280;59543;37.950;-122.338;2023-04-27T07:11:19;101233.84;;;10.78;89.67
70011;BME280;59543;37.950;-122.338;2023-04-27T07:13:46;101235.38;;;10.70;89.55
70011;BME280;59543;37.950;-122.338;2023-04-27T07:16:12;101244.63;;;10.78;89.33
70011;BME280;59543;37.950;-122.338;2023-04-27T07:18:38;101234.25;;;10.73;89.52
70011;BME280;59543;37.950;-122.338;2023-04-27T07:21:04;101240.34;;;10.65;90.06
70011;BME280;59543;37.950;-122.338;2023-04-27T07:23:31;101240.47;;;10.64;90.30
70011;BME280;59543;37.950;-122.338;2023-04-27T07:25:57;101246.75;;;10.74;89.82
70011;BME280;59543;37.950;-122.338;2023-04-27T07:28:24;101239.25;;;10.78;89.91
70011;BME280;59543;37.950;-122.338;2023-04-27T07:30:50;101243.06;;;10.85;89.50
70011;BME280;59543;37.950;-122.338;2023-04-27T07:33:17;101246.75;;;10.74;90.20
70011;BME280;59543;37.950;-122.338;2023-04-27T07:35:43;101244.63;;;10.78;89.82
70011;BME280;59543;37.950;-122.338;2023-04-27T07:38:09;101240.75;;;10.70;90.09
70011;BME280;59543;37.950;-122.338;2023-04-27T07:40:36;101245.03;;;10.83;90.35
70011;BME280;59543;37.950;-122.338;2023-04-27T07:43:02;101247.88;;;10.81;90.25
70011;BME280;59543;37.950;-122.338;2023-04-27T07:45:29;101243.78;;;10.87;89.59
70011;BME280;59543;37.950;-122.338;2023-04-27T07:47:58;101247.91;;;10.91;89.09
70011;BME280;59543;37.950;-122.338;2023-04-27T07:50:26;101249.19;;;10.87;89.05
70011;BME280;59543;37.950;-122.338;2023-04-27T07:52:53;101252.13;;;10.84;88.91
70011;BME280;59543;37.950;-122.338;2023-04-27T07:55:20;101257.91;;;10.69;90.31
70011;BME280;59543;37.950;-122.338;2023-04-27T07:57:49;101254.47;;;10.58;91.24
70011;BME280;59543;37.950;-122.338;2023-04-27T08:00:16;101254.66;;;10.75;89.74
70011;BME280;59543;37.950;-122.338;2023-04-27T08:02:42;101252.50;;;10.60;91.07
70011;BME280;59543;37.950;-122.338;2023-04-27T08:05:08;101249.66;;;10.61;90.75
70011;BME280;59543;37.950;-122.338;2023-04-27T08:07:35;101247.50;;;10.55;91.19
70011;BME280;59543;37.950;-122.338;2023-04-27T08:10:01;101249.63;;;10.51;91.50
70011;BME280;59543;37.950;-122.338;2023-04-27T08:12:28;101245.47;;;10.38;92.17
70011;BME280;59543;37.950;-122.338;2023-04-27T08:14:54;101244.63;;;10.37;92.76
70011;BME280;59543;37.950;-122.338;2023-04-27T08:17:20;101248.56;;;10.33;91.69
70011;BME280;59543;37.950;-122.338;2023-04-27T08:19:46;101243.50;;;10.40;91.58
70011;BME280;59543;37.950;-122.338;2023-04-27T08:22:13;101244.47;;;10.29;91.68
70011;BME280;59543;37.950;-122.338;2023-04-27T08:24:39;101248.84;;;10.30;92.40
70011;BME280;59543;37.950;-122.338;2023-04-27T08:27:06;101241.91;;;10.27;92.31
70011;BME280;59543;37.950;-122.338;2023-04-27T08:29:32;101251.09;;;10.35;92.17
70011;BME280;59543;37.950;-122.338;2023-04-27T08:32:00;101246.28;;;10.28;92.59
70011;BME280;59543;37.950;-122.338;2023-04-27T08:34:27;101244.59;;;10.27;92.26
70011;BME280;59543;37.950;-122.338;2023-04-27T08:36:54;101244.03;;;10.34;92.48
70011;BME280;59543;37.950;-122.338;2023-04-27T08:39:21;101246.94;;;10.21;93.15
70011;BME280;59543;37.950;-122.338;2023-04-27T08:41:48;101247.16;;;10.29;92.86
70011;BME280;59543;37.950;-122.338;2023-04-27T08:44:14;101242.88;;;10.26;93.01
70011;BME280;59543;37.950;-122.338;2023-04-27T08:46:40;101241.78;;;10.29;93.25
70011;BME280;59543;37.950;-122.338;2023-04-27T08:49:07;101243.13;;;10.23;93.80
70011;BME280;59543;37.950;-122.338;2023-04-27T08:51:34;101246.78;;;10.22;93.47
70011;BME280;59543;37.950;-122.338;2023-04-27T08:54:01;101237.75;;;10.23;93.62
70011;BME280;59543;37.950;-122.338;2023-04-27T08:56:28;101235.13;;;10.33;92.28
70011;BME280;59543;37.950;-122.338;2023-04-27T08:58:56;101246.78;;;10.22;92.99
70011;BME280;59543;37.950;-122.338;2023-04-27T09:01:23;101235.88;;;10.14;93.33
70011;BME280;59543;37.950;-122.338;2023-04-27T09:03:57;101238.94;;;10.10;93.31
70011;BME280;59543;37.950;-122.338;2023-04-27T09:06:34;101232.84;;;10.07;94.16
70011;BME280;59543;37.950;-122.338;2023-04-27T09:09:01;101235.41;;;10.09;94.02
70011;BME280;59543;37.950;-122.338;2023-04-27T09:11:33;101226.19;;;10.02;94.25
70011;BME280;59543;37.950;-122.338;2023-04-27T09:14:20;101229.00;;;10.00;94.45
70011;BME280;59543;37.950;-122.338;2023-04-27T09:16:57;101228.25;;;9.98;95.45
70011;BME280;59543;37.950;-122.338;2023-04-27T09:19:28;101236.47;;;9.97;95.64
70011;BME280;59543;37.950;-122.338;2023-04-27T09:22:10;101230.38;;;9.95;96.65
70011;BME280;59543;37.950;-122.338;2023-04-27T09:24:48;101231.69;;;10.00;95.92
70011;BME280;59543;37.950;-122.338;2023-04-27T09:27:19;101230.63;;;9.92;97.01
70011;BME280;59543;37.950;-122.338;2023-04-27T09:29:46;101224.69;;;9.88;97.78
70011;BME280;59543;37.950;-122.338;2023-04-27T09:32:16;101222.31;;;9.95;97.22
70011;BME280;59543;37.950;-122.338;2023-04-27T09:34:45;101214.25;;;9.95;96.79
70011;BME280;59543;37.950;-122.338;2023-04-27T09:37:11;101208.75;;;9.96;96.81
70011;BME280;59543;37.950;-122.338;2023-04-27T09:39:39;101205.91;;;9.98;96.34
70011;BME280;59543;37.950;-122.338;2023-04-27T09:42:06;101198.53;;;9.90;96.96
70011;BME280;59543;37.950;-122.338;2023-04-27T09:44:34;101194.88;;;9.91;96.70
70011;BME280;59543;37.950;-122.338;2023-04-27T09:47:00;101189.78;;;9.98;96.62
70011;BME280;59543;37.950;-122.338;2023-04-27T09:49:27;101188.41;;;10.03;97.43
70011;BME280;59543;37.950;-122.338;2023-04-27T09:51:57;101181.47;;;10.01;97.18
70011;BME280;59543;37.950;-122.338;2023-04-27T09:54:26;101184.72;;;10.04;96.84
70011;BME280;59543;37.950;-122.338;2023-04-27T10:02:54;101169.09;;;9.89;97.62
70011;BME280;59543;37.950;-122.338;2023-04-27T10:08:02;101172.97;;;9.96;97.70
70011;BME280;59543;37.950;-122.338;2023-04-27T10:10:29;101177.63;;;9.94;97.88
70011;BME280;59543;37.950;-122.338;2023-04-27T10:12:57;101183.03;;;10.03;97.46
70011;BME280;59543;37.950;-122.338;2023-04-27T10:15:26;101173.81;;;9.96;97.24
70011;BME280;59543;37.950;-122.338;2023-04-27T10:17:53;101181.53;;;9.90;98.29
70011;BME280;59543;37.950;-122.338;2023-04-27T10:20:30;101175.59;;;9.86;98.55
70011;BME280;59543;37.950;-122.338;2023-04-27T10:22:58;101178.81;;;9.80;99.56
70011;BME280;59543;37.950;-122.338;2023-04-27T10:25:29;101175.91;;;9.93;99.68
70011;BME280;59543;37.950;-122.338;2023-04-27T10:28:02;101177.44;;;9.85;100.00
70011;BME280;59543;37.950;-122.338;2023-04-27T10:30:36;101170.94;;;9.88;100.00
70011;BME280;59543;37.950;-122.338;2023-04-27T10:33:10;101174.53;;;9.98;100.00
70011;BME280;59543;37.950;-122.338;2023-04-27T10:38:09;101171.72;;;10.00;98.91
70011;BME280;59543;37.950;-122.338;2023-04-27T10:40:37;101175.50;;;9.97;99.38
70011;BME280;59543;37.950;-122.338;2023-04-27T10:43:14;101174.84;;;10.05;98.26
70011;BME280;59543;37.950;-122.338;2023-04-27T10:45:42;101169.25;;;9.87;98.77
70011;BME280;59543;37.950;-122.338;2023-04-27T10:48:12;101176.50;;;9.96;98.56
70011;BME280;59543;37.950;-122.338;2023-04-27T10:50:41;101175.81;;;10.04;98.57
70011;BME280;59543;37.950;-122.338;2023-04-27T10:53:09;101179.63;;;10.01;98.68
70011;BME280;59543;37.950;-122.338;2023-04-27T10:55:35;101177.09;;;10.00;99.08
70011;BME280;59543;37.950;-122.338;2023-04-27T10:58:02;101175.91;;;9.93;98.82
70011;BME280;59543;37.950;-122.338;2023-04-27T11:00:34;101173.66;;;9.98;98.00
70011;BME280;59543;37.950;-122.338;2023-04-27T11:03:15;101177.31;;;9.87;98.48
70011;BME280;59543;37.950;-122.338;2023-04-27T11:05:43;101173.19;;;9.83;98.20
70011;BME280;59543;37.950;-122.338;2023-04-27T11:08:12;101171.13;;;9.96;97.71
70011;BME280;59543;37.950;-122.338;2023-04-27T11:10:40;101178.44;;;9.84;98.70
70011;BME280;59543;37.950;-122.338;2023-04-27T11:13:09;101172.53;;;9.91;98.09
70011;BME280;59543;37.950;-122.338;2023-04-27T11:15:57;101178.16;;;9.88;98.09
70011;BME280;59543;37.950;-122.338;2023-04-27T11:18:26;101165.41;;;9.90;97.65
70011;BME280;59543;37.950;-122.338;2023-04-27T11:21:05;101175.75;;;9.84;97.97
70011;BME280;59543;37.950;-122.338;2023-04-27T11:23:33;101168.25;;;9.88;97.83
70011;BME280;59543;37.950;-122.338;2023-04-27T11:28:39;101166.59;;;9.97;98.12
70011;BME280;59543;37.950;-122.338;2023-04-27T11:31:06;101170.38;;;9.84;98.12
70011;BME280;59543;37.950;-122.338;2023-04-27T11:33:32;101169.09;;;9.89;97.99
70011;BME280;59543;37.950;-122.338;2023-04-27T11:35:59;101160.66;;;9.93;97.89
70011;BME280;59543;37.950;-122.338;2023-04-27T11:38:32;101161.97;;;9.99;97.86
70011;BME280;59543;37.950;-122.338;2023-04-27T11:41:03;101155.97;;;9.95;98.49
70011;BME280;59543;37.950;-122.338;2023-04-27T11:43:30;101163.19;;;9.95;97.84
70011;BME280;59543;37.950;-122.338;2023-04-27T11:45:57;101151.72;;;9.93;98.43
70011;BME280;59543;37.950;-122.338;2023-04-27T11:48:27;101157.81;;;9.95;98.17
70011;BME280;59543;37.950;-122.338;2023-04-27T11:50:56;101158.09;;;9.92;98.17
70011;BME280;59543;37.950;-122.338;2023-04-27T11:53:37;101166.47;;;9.98;97.83
70011;BME280;59543;37.950;-122.338;2023-04-27T11:56:05;101161.34;;;9.95;97.76
70011;BME280;59543;37.950;-122.338;2023-04-27T11:58:37;101167.59;;;9.96;97.70
70011;BME280;59543;37.950;-122.338;2023-04-27T12:01:04;101168.72;;;9.93;98.13
70011;BME280;59543;37.950;-122.338;2023-04-27T12:03:30;101171.94;;;9.87;98.69
70011;BME280;59543;37.950;-122.338;2023-04-27T12:05:57;101170.28;;;9.96;97.50
70011;BME280;59543;37.950;-122.338;2023-04-27T12:08:23;101166.88;;;9.94;97.98
70011;BME280;59543;37.950;-122.338;2023-04-27T12:10:50;101163.34;;;9.93;98.90
70011;BME280;59543;37.950;-122.338;2023-04-27T12:13:16;101157.81;;;9.95;98.92
70011;BME280;59543;37.950;-122.338;2023-04-27T12:15:42;101155.34;;;10.13;98.14
70011;BME280;59543;37.950;-122.338;2023-04-27T12:18:09;101149.47;;;9.98;98.61
70011;BME280;59543;37.950;-122.338;2023-04-27T12:20:36;101151.91;;;10.01;98.82
70011;BME280;59543;37.950;-122.338;2023-04-27T12:23:02;101153.03;;;9.98;98.57
70011;BME280;59543;37.950;-122.338;2023-04-27T12:25:28;101164.09;;;10.05;98.42
70011;BME280;59543;37.950;-122.338;2023-04-27T12:27:55;101165.06;;;10.04;98.38
70011;BME280;59543;37.950;-122.338;2023-04-27T12:30:22;101162.47;;;9.93;99.29
70011;BME280;59543;37.950;-122.338;2023-04-27T12:32:48;101164.31;;;9.92;99.67
70011;BME280;59543;37.950;-122.338;2023-04-27T12:35:14;101164.31;;;9.92;99.35
70011;BME280;59543;37.950;-122.338;2023-04-27T12:37:41;101168.38;;;9.87;99.55